Mc Alester Regional Airport Mc Alester US
ICAO: KMLC
IATA: MLC
Category: Medium
Scheduled Services: No

Elevation: 770 ft
TransAlt. 18000 ft.

Airport Communications:
ASOS:135.125
FORT WORTH CNTR:132.2
RDO:122.65
CTAF/UNICOM:122.95

KMLC Zoom In..

If you have problems with the map follow the link
https://www.worldairports.se/pages/airport.php?
ICAO=KMLC

Runways:

(A) RW 02 length 5602 ft width 100 ft
LOC 108.30 / hdg 14

(B) RW 20 length 5602 ft width 100 ft
LOC 108.30 / hdg 194

Location; KMLC
Day. 20 / Time. 20.53 Zulu
* Altimeter: 29.90
* Temperature: 11° c. 51.8°f.
* Wind from: 220° Speed 08 kn.
Dewpoint: 02° c.
Visibility: 10 Statute Miles.
Clouds: Clear (automated report).

KMLC 202053Z AUTO 22008KT 10SM CLR 11/02 A2990 RMK AO2 SLP124 T01060017 56015


Wind From 220°
Speed 08 kn.

 
 
jpsmedia.com for Web Design worldairports.se 2019   terms of use